sensor_id;sensor_type;location;lat;lon;timestamp;P1;durP1;ratioP1;P2;durP2;ratioP2
20140;SDS011;10231;47.702;9.826;2023-06-19T00:01:43;9.30;;;8.40;;
20140;SDS011;10231;47.702;9.826;2023-06-19T00:04:09;8.80;;;8.00;;
20140;SDS011;10231;47.702;9.826;2023-06-19T00:06:35;9.30;;;8.50;;
20140;SDS011;10231;47.702;9.826;2023-06-19T00:09:01;9.87;;;9.07;;
20140;SDS011;10231;47.702;9.826;2023-06-19T00:11:27;9.90;;;9.10;;
20140;SDS011;10231;47.702;9.826;2023-06-19T00:13:52;9.23;;;8.43;;
20140;SDS011;10231;47.702;9.826;2023-06-19T00:16:18;9.50;;;8.73;;
20140;SDS011;10231;47.702;9.826;2023-06-19T00:18:44;9.97;;;9.17;;
20140;SDS011;10231;47.702;9.826;2023-06-19T00:21:10;10.67;;;9.77;;
20140;SDS011;10231;47.702;9.826;2023-06-19T00:23:36;9.80;;;8.87;;
20140;SDS011;10231;47.702;9.826;2023-06-19T00:26:02;9.70;;;8.80;;
20140;SDS011;10231;47.702;9.826;2023-06-19T00:28:28;9.80;;;8.90;;
20140;SDS011;10231;47.702;9.826;2023-06-19T00:30:54;9.97;;;9.00;;
20140;SDS011;10231;47.702;9.826;2023-06-19T00:33:20;9.83;;;9.00;;
20140;SDS011;10231;47.702;9.826;2023-06-19T00:35:46;9.20;;;8.50;;
20140;SDS011;10231;47.702;9.826;2023-06-19T00:38:13;9.60;;;8.77;;
20140;SDS011;10231;47.702;9.826;2023-06-19T00:40:38;9.27;;;8.47;;
20140;SDS011;10231;47.702;9.826;2023-06-19T00:43:06;9.57;;;8.67;;
20140;SDS011;10231;47.702;9.826;2023-06-19T00:45:31;9.20;;;8.40;;
20140;SDS011;10231;47.702;9.826;2023-06-19T00:47:57;8.70;;;8.00;;
20140;SDS011;10231;47.702;9.826;2023-06-19T00:50:25;9.37;;;8.40;;
20140;SDS011;10231;47.702;9.826;2023-06-19T00:52:52;9.50;;;8.73;;
20140;SDS011;10231;47.702;9.826;2023-06-19T00:55:18;9.47;;;8.73;;
20140;SDS011;10231;47.702;9.826;2023-06-19T00:57:44;9.27;;;8.47;;
20140;SDS011;10231;47.702;9.826;2023-06-19T01:00:10;9.57;;;8.77;;
20140;SDS011;10231;47.702;9.826;2023-06-19T01:02:37;10.10;;;9.17;;
20140;SDS011;10231;47.702;9.826;2023-06-19T01:05:03;10.00;;;9.20;;
20140;SDS011;10231;47.702;9.826;2023-06-19T01:07:35;9.50;;;8.60;;
20140;SDS011;10231;47.702;9.826;2023-06-19T01:10:14;9.93;;;9.10;;
20140;SDS011;10231;47.702;9.826;2023-06-19T01:12:44;9.87;;;9.10;;
20140;SDS011;10231;47.702;9.826;2023-06-19T01:15:17;9.80;;;8.90;;
20140;SDS011;10231;47.702;9.826;2023-06-19T01:17:43;9.80;;;8.97;;
20140;SDS011;10231;47.702;9.826;2023-06-19T01:20:11;9.70;;;8.80;;
20140;SDS011;10231;47.702;9.826;2023-06-19T01:22:37;9.70;;;8.90;;
20140;SDS011;10231;47.702;9.826;2023-06-19T01:25:03;10.37;;;9.37;;
20140;SDS011;10231;47.702;9.826;2023-06-19T01:27:30;9.37;;;8.60;;
20140;SDS011;10231;47.702;9.826;2023-06-19T01:29:57;9.33;;;8.57;;
20140;SDS011;10231;47.702;9.826;2023-06-19T01:32:40;10.03;;;9.20;;
20140;SDS011;10231;47.702;9.826;2023-06-19T01:35:13;9.30;;;8.50;;
20140;SDS011;10231;47.702;9.826;2023-06-19T01:37:42;10.37;;;9.37;;
20140;SDS011;10231;47.702;9.826;2023-06-19T01:40:10;9.23;;;8.47;;
20140;SDS011;10231;47.702;9.826;2023-06-19T01:42:37;9.10;;;8.33;;
20140;SDS011;10231;47.702;9.826;2023-06-19T01:45:05;9.87;;;8.97;;
20140;SDS011;10231;47.702;9.826;2023-06-19T01:47:31;9.83;;;9.00;;
20140;SDS011;10231;47.702;9.826;2023-06-19T01:49:57;9.33;;;8.53;;
20140;SDS011;10231;47.702;9.826;2023-06-19T01:52:23;10.53;;;9.63;;
20140;SDS011;10231;47.702;9.826;2023-06-19T01:54:49;10.00;;;9.03;;
20140;SDS011;10231;47.702;9.826;2023-06-19T01:57:15;9.47;;;8.77;;
20140;SDS011;10231;47.702;9.826;2023-06-19T01:59:41;10.10;;;9.20;;
20140;SDS011;10231;47.702;9.826;2023-06-19T02:02:06;10.27;;;9.47;;
20140;SDS011;10231;47.702;9.826;2023-06-19T02:04:32;9.40;;;8.60;;
20140;SDS011;10231;47.702;9.826;2023-06-19T02:06:58;10.43;;;9.57;;
20140;SDS011;10231;47.702;9.826;2023-06-19T02:09:23;9.27;;;8.50;;
20140;SDS011;10231;47.702;9.826;2023-06-19T02:11:49;10.77;;;9.93;;
20140;SDS011;10231;47.702;9.826;2023-06-19T02:14:14;10.63;;;9.63;;
20140;SDS011;10231;47.702;9.826;2023-06-19T02:16:40;10.43;;;9.53;;
20140;SDS011;10231;47.702;9.826;2023-06-19T02:19:09;10.67;;;9.67;;
20140;SDS011;10231;47.702;9.826;2023-06-19T02:21:35;10.97;;;10.00;;
20140;SDS011;10231;47.702;9.826;2023-06-19T02:24:01;10.40;;;9.50;;
20140;SDS011;10231;47.702;9.826;2023-06-19T02:26:27;10.43;;;9.50;;
20140;SDS011;10231;47.702;9.826;2023-06-19T02:28:54;10.67;;;9.77;;
20140;SDS011;10231;47.702;9.826;2023-06-19T02:31:23;9.90;;;9.03;;
20140;SDS011;10231;47.702;9.826;2023-06-19T02:33:48;10.43;;;9.43;;
20140;SDS011;10231;47.702;9.826;2023-06-19T02:36:14;9.90;;;9.10;;
20140;SDS011;10231;47.702;9.826;2023-06-19T02:38:45;10.70;;;9.67;;
20140;SDS011;10231;47.702;9.826;2023-06-19T02:41:11;10.87;;;9.83;;
20140;SDS011;10231;47.702;9.826;2023-06-19T02:43:37;10.77;;;9.77;;
20140;SDS011;10231;47.702;9.826;2023-06-19T02:46:04;10.20;;;9.30;;
20140;SDS011;10231;47.702;9.826;2023-06-19T02:48:29;10.23;;;9.43;;
20140;SDS011;10231;47.702;9.826;2023-06-19T02:50:55;10.70;;;9.80;;
20140;SDS011;10231;47.702;9.826;2023-06-19T02:53:20;10.27;;;9.47;;
20140;SDS011;10231;47.702;9.826;2023-06-19T02:55:46;10.17;;;9.37;;
20140;SDS011;10231;47.702;9.826;2023-06-19T02:58:11;10.23;;;9.43;;
20140;SDS011;10231;47.702;9.826;2023-06-19T03:00:37;10.93;;;10.03;;
20140;SDS011;10231;47.702;9.826;2023-06-19T03:03:03;10.17;;;9.30;;
20140;SDS011;10231;47.702;9.826;2023-06-19T03:05:28;9.53;;;8.77;;
20140;SDS011;10231;47.702;9.826;2023-06-19T03:07:54;9.47;;;8.77;;
20140;SDS011;10231;47.702;9.826;2023-06-19T03:10:19;10.77;;;9.73;;
20140;SDS011;10231;47.702;9.826;2023-06-19T03:12:45;10.23;;;9.33;;
20140;SDS011;10231;47.702;9.826;2023-06-19T03:15:10;9.77;;;9.07;;
20140;SDS011;10231;47.702;9.826;2023-06-19T03:17:36;10.73;;;9.77;;
20140;SDS011;10231;47.702;9.826;2023-06-19T03:20:01;10.63;;;9.73;;
20140;SDS011;10231;47.702;9.826;2023-06-19T03:22:27;10.97;;;9.97;;
20140;SDS011;10231;47.702;9.826;2023-06-19T03:24:52;10.23;;;9.33;;
20140;SDS011;10231;47.702;9.826;2023-06-19T03:27:18;9.73;;;8.93;;
20140;SDS011;10231;47.702;9.826;2023-06-19T03:29:44;10.50;;;9.50;;
20140;SDS011;10231;47.702;9.826;2023-06-19T03:32:09;10.43;;;9.57;;
20140;SDS011;10231;47.702;9.826;2023-06-19T03:34:35;10.37;;;9.57;;
20140;SDS011;10231;47.702;9.826;2023-06-19T03:37:00;10.13;;;9.30;;
20140;SDS011;10231;47.702;9.826;2023-06-19T03:39:26;10.60;;;9.57;;
20140;SDS011;10231;47.702;9.826;2023-06-19T03:41:51;10.73;;;9.83;;
20140;SDS011;10231;47.702;9.826;2023-06-19T03:44:17;9.73;;;8.93;;
20140;SDS011;10231;47.702;9.826;2023-06-19T03:46:42;10.20;;;9.23;;
20140;SDS011;10231;47.702;9.826;2023-06-19T03:49:08;10.87;;;10.03;;
20140;SDS011;10231;47.702;9.826;2023-06-19T03:51:34;9.60;;;8.80;;
20140;SDS011;10231;47.702;9.826;2023-06-19T03:54:00;10.27;;;9.33;;
20140;SDS011;10231;47.702;9.826;2023-06-19T03:56:25;10.73;;;9.83;;
20140;SDS011;10231;47.702;9.826;2023-06-19T03:58:51;9.90;;;9.10;;
20140;SDS011;10231;47.702;9.826;2023-06-19T04:01:16;10.10;;;9.20;;
20140;SDS011;10231;47.702;9.826;2023-06-19T04:03:42;11.07;;;9.90;;
20140;SDS011;10231;47.702;9.826;2023-06-19T04:06:08;10.40;;;9.33;;
20140;SDS011;10231;47.702;9.826;2023-06-19T04:08:33;11.07;;;10.17;;
20140;SDS011;10231;47.702;9.826;2023-06-19T04:10:59;11.00;;;10.10;;
20140;SDS011;10231;47.702;9.826;2023-06-19T04:13:24;11.13;;;10.13;;
20140;SDS011;10231;47.702;9.826;2023-06-19T04:15:51;10.47;;;9.47;;
20140;SDS011;10231;47.702;9.826;2023-06-19T04:18:16;10.83;;;9.93;;
20140;SDS011;10231;47.702;9.826;2023-06-19T04:20:42;12.20;;;11.07;;
20140;SDS011;10231;47.702;9.826;2023-06-19T04:23:08;11.13;;;10.10;;
20140;SDS011;10231;47.702;9.826;2023-06-19T04:25:34;11.23;;;10.13;;
20140;SDS011;10231;47.702;9.826;2023-06-19T04:27:59;10.83;;;9.80;;
20140;SDS011;10231;47.702;9.826;2023-06-19T04:30:28;10.63;;;9.63;;
20140;SDS011;10231;47.702;9.826;2023-06-19T04:32:54;10.07;;;9.17;;
20140;SDS011;10231;47.702;9.826;2023-06-19T04:35:19;10.17;;;9.13;;
20140;SDS011;10231;47.702;9.826;2023-06-19T04:37:45;10.80;;;9.90;;
20140;SDS011;10231;47.702;9.826;2023-06-19T04:40:13;10.03;;;9.03;;
20140;SDS011;10231;47.702;9.826;2023-06-19T04:42:39;10.83;;;9.83;;
20140;SDS011;10231;47.702;9.826;2023-06-19T04:45:05;10.30;;;9.27;;
20140;SDS011;10231;47.702;9.826;2023-06-19T04:47:32;10.67;;;9.63;;
20140;SDS011;10231;47.702;9.826;2023-06-19T04:49:58;9.40;;;8.70;;
20140;SDS011;10231;47.702;9.826;2023-06-19T04:52:24;9.93;;;9.07;;
20140;SDS011;10231;47.702;9.826;2023-06-19T04:54:50;10.17;;;8.97;;
20140;SDS011;10231;47.702;9.826;2023-06-19T04:57:15;9.87;;;9.07;;
20140;SDS011;10231;47.702;9.826;2023-06-19T04:59:42;9.60;;;8.80;;
20140;SDS011;10231;47.702;9.826;2023-06-19T05:02:09;9.27;;;8.53;;
20140;SDS011;10231;47.702;9.826;2023-06-19T05:04:35;9.57;;;8.87;;
20140;SDS011;10231;47.702;9.826;2023-06-19T05:07:01;9.13;;;8.33;;
20140;SDS011;10231;47.702;9.826;2023-06-19T05:09:26;10.13;;;8.63;;
20140;SDS011;10231;47.702;9.826;2023-06-19T05:11:55;9.87;;;9.03;;
20140;SDS011;10231;47.702;9.826;2023-06-19T05:14:22;9.53;;;8.73;;
20140;SDS011;10231;47.702;9.826;2023-06-19T05:16:47;9.80;;;8.73;;
20140;SDS011;10231;47.702;9.826;2023-06-19T05:19:13;9.07;;;8.37;;
20140;SDS011;10231;47.702;9.826;2023-06-19T05:21:38;8.80;;;8.17;;
20140;SDS011;10231;47.702;9.826;2023-06-19T05:24:04;9.20;;;8.30;;
20140;SDS011;10231;47.702;9.826;2023-06-19T05:26:30;8.87;;;7.97;;
20140;SDS011;10231;47.702;9.826;2023-06-19T05:28:55;9.43;;;8.53;;
20140;SDS011;10231;47.702;9.826;2023-06-19T05:31:20;9.53;;;8.73;;
20140;SDS011;10231;47.702;9.826;2023-06-19T05:33:46;8.70;;;8.00;;
20140;SDS011;10231;47.702;9.826;2023-06-19T05:36:12;9.10;;;8.27;;
20140;SDS011;10231;47.702;9.826;2023-06-19T05:38:37;8.90;;;8.00;;
20140;SDS011;10231;47.702;9.826;2023-06-19T05:41:03;8.50;;;7.70;;
20140;SDS011;10231;47.702;9.826;2023-06-19T05:43:28;10.50;;;8.70;;
20140;SDS011;10231;47.702;9.826;2023-06-19T05:45:54;9.13;;;7.90;;
20140;SDS011;10231;47.702;9.826;2023-06-19T05:48:27;9.27;;;8.33;;
20140;SDS011;10231;47.702;9.826;2023-06-19T05:50:53;8.97;;;8.07;;
20140;SDS011;10231;47.702;9.826;2023-06-19T05:53:18;8.03;;;7.33;;
20140;SDS011;10231;47.702;9.826;2023-06-19T05:55:44;7.73;;;6.80;;
20140;SDS011;10231;47.702;9.826;2023-06-19T05:58:09;8.77;;;7.97;;
20140;SDS011;10231;47.702;9.826;2023-06-19T06:00:35;8.97;;;8.20;;
20140;SDS011;10231;47.702;9.826;2023-06-19T06:03:00;8.90;;;8.00;;
20140;SDS011;10231;47.702;9.826;2023-06-19T06:05:27;8.63;;;7.53;;
20140;SDS011;10231;47.702;9.826;2023-06-19T06:07:53;9.17;;;8.27;;
20140;SDS011;10231;47.702;9.826;2023-06-19T06:10:20;8.63;;;7.97;;
20140;SDS011;10231;47.702;9.826;2023-06-19T06:12:47;9.87;;;8.87;;
20140;SDS011;10231;47.702;9.826;2023-06-19T06:15:13;9.60;;;8.70;;
20140;SDS011;10231;47.702;9.826;2023-06-19T06:17:39;8.40;;;7.70;;
20140;SDS011;10231;47.702;9.826;2023-06-19T06:20:05;8.30;;;7.60;;
20140;SDS011;10231;47.702;9.826;2023-06-19T06:22:39;8.80;;;8.03;;
20140;SDS011;10231;47.702;9.826;2023-06-19T06:25:05;8.37;;;7.67;;
20140;SDS011;10231;47.702;9.826;2023-06-19T06:27:31;8.03;;;7.30;;
20140;SDS011;10231;47.702;9.826;2023-06-19T06:29:57;10.17;;;7.53;;
20140;SDS011;10231;47.702;9.826;2023-06-19T06:32:23;7.33;;;6.63;;
20140;SDS011;10231;47.702;9.826;2023-06-19T06:34:48;7.10;;;6.47;;
20140;SDS011;10231;47.702;9.826;2023-06-19T06:37:14;6.33;;;5.73;;
20140;SDS011;10231;47.702;9.826;2023-06-19T06:39:41;6.87;;;6.27;;
20140;SDS011;10231;47.702;9.826;2023-06-19T06:42:07;6.37;;;5.87;;
20140;SDS011;10231;47.702;9.826;2023-06-19T06:44:32;5.83;;;5.43;;
20140;SDS011;10231;47.702;9.826;2023-06-19T06:46:58;6.87;;;6.27;;
20140;SDS011;10231;47.702;9.826;2023-06-19T06:49:23;6.33;;;5.83;;
20140;SDS011;10231;47.702;9.826;2023-06-19T06:51:49;6.80;;;6.20;;
20140;SDS011;10231;47.702;9.826;2023-06-19T06:54:15;7.13;;;6.47;;
20140;SDS011;10231;47.702;9.826;2023-06-19T06:56:40;6.67;;;6.00;;
20140;SDS011;10231;47.702;9.826;2023-06-19T06:59:06;6.53;;;5.93;;
20140;SDS011;10231;47.702;9.826;2023-06-19T07:01:31;6.20;;;5.70;;
20140;SDS011;10231;47.702;9.826;2023-06-19T07:03:57;6.10;;;5.50;;
20140;SDS011;10231;47.702;9.826;2023-06-19T07:06:22;6.47;;;5.30;;
20140;SDS011;10231;47.702;9.826;2023-06-19T07:08:48;6.80;;;5.60;;
20140;SDS011;10231;47.702;9.826;2023-06-19T07:11:13;6.07;;;5.47;;
20140;SDS011;10231;47.702;9.826;2023-06-19T07:13:39;5.63;;;5.23;;
20140;SDS011;10231;47.702;9.826;2023-06-19T07:16:06;5.43;;;5.07;;
20140;SDS011;10231;47.702;9.826;2023-06-19T07:18:32;5.33;;;4.93;;
20140;SDS011;10231;47.702;9.826;2023-06-19T07:21:00;5.27;;;4.87;;
20140;SDS011;10231;47.702;9.826;2023-06-19T07:23:26;6.27;;;5.77;;
20140;SDS011;10231;47.702;9.826;2023-06-19T07:25:51;5.50;;;5.10;;
20140;SDS011;10231;47.702;9.826;2023-06-19T07:28:17;5.27;;;4.83;;
20140;SDS011;10231;47.702;9.826;2023-06-19T07:30:42;5.40;;;5.00;;
20140;SDS011;10231;47.702;9.826;2023-06-19T07:33:09;5.67;;;5.20;;
20140;SDS011;10231;47.702;9.826;2023-06-19T07:35:34;4.80;;;4.40;;
20140;SDS011;10231;47.702;9.826;2023-06-19T07:38:00;5.00;;;4.50;;
20140;SDS011;10231;47.702;9.826;2023-06-19T07:40:26;4.70;;;4.37;;
20140;SDS011;10231;47.702;9.826;2023-06-19T07:42:51;4.40;;;4.10;;
20140;SDS011;10231;47.702;9.826;2023-06-19T07:45:17;4.00;;;3.70;;
20140;SDS011;10231;47.702;9.826;2023-06-19T07:47:42;4.30;;;4.00;;
20140;SDS011;10231;47.702;9.826;2023-06-19T07:50:08;4.27;;;3.90;;
20140;SDS011;10231;47.702;9.826;2023-06-19T07:52:34;4.43;;;4.13;;
20140;SDS011;10231;47.702;9.826;2023-06-19T07:54:59;3.80;;;3.60;;
20140;SDS011;10231;47.702;9.826;2023-06-19T07:57:25;4.65;;;4.25;;
20140;SDS011;10231;47.702;9.826;2023-06-19T07:59:52;4.33;;;3.97;;
20140;SDS011;10231;47.702;9.826;2023-06-19T08:02:19;4.37;;;4.07;;
20140;SDS011;10231;47.702;9.826;2023-06-19T08:04:45;4.60;;;4.20;;
20140;SDS011;10231;47.702;9.826;2023-06-19T08:07:11;4.80;;;4.50;;
20140;SDS011;10231;47.702;9.826;2023-06-19T08:09:37;4.77;;;3.93;;
20140;SDS011;10231;47.702;9.826;2023-06-19T08:12:02;5.00;;;4.63;;
20140;SDS011;10231;47.702;9.826;2023-06-19T08:14:28;5.43;;;4.93;;
20140;SDS011;10231;47.702;9.826;2023-06-19T08:16:54;4.90;;;4.50;;
20140;SDS011;10231;47.702;9.826;2023-06-19T08:19:20;5.37;;;4.87;;
20140;SDS011;10231;47.702;9.826;2023-06-19T08:21:45;4.67;;;4.37;;
20140;SDS011;10231;47.702;9.826;2023-06-19T08:24:11;5.27;;;4.50;;
20140;SDS011;10231;47.702;9.826;2023-06-19T08:26:36;5.30;;;4.37;;
20140;SDS011;10231;47.702;9.826;2023-06-19T08:29:02;6.00;;;4.30;;
20140;SDS011;10231;47.702;9.826;2023-06-19T08:31:28;5.03;;;4.60;;
20140;SDS011;10231;47.702;9.826;2023-06-19T08:33:54;5.70;;;4.60;;
20140;SDS011;10231;47.702;9.826;2023-06-19T08:36:20;4.70;;;4.30;;
20140;SDS011;10231;47.702;9.826;2023-06-19T08:38:45;5.30;;;4.30;;
20140;SDS011;10231;47.702;9.826;2023-06-19T08:41:18;4.10;;;3.53;;
20140;SDS011;10231;47.702;9.826;2023-06-19T08:43:44;4.00;;;3.60;;
20140;SDS011;10231;47.702;9.826;2023-06-19T08:46:11;4.73;;;4.30;;
20140;SDS011;10231;47.702;9.826;2023-06-19T08:48:42;3.87;;;3.57;;
20140;SDS011;10231;47.702;9.826;2023-06-19T08:51:09;2.90;;;2.70;;
20140;SDS011;10231;47.702;9.826;2023-06-19T08:53:36;3.60;;;3.40;;
20140;SDS011;10231;47.702;9.826;2023-06-19T08:56:09;3.30;;;2.97;;
20140;SDS011;10231;47.702;9.826;2023-06-19T08:58:35;3.30;;;2.50;;
20140;SDS011;10231;47.702;9.826;2023-06-19T09:01:02;2.63;;;2.53;;
20140;SDS011;10231;47.702;9.826;2023-06-19T09:03:28;3.00;;;2.90;;
20140;SDS011;10231;47.702;9.826;2023-06-19T09:05:54;10.87;;;5.70;;
20140;SDS011;10231;47.702;9.826;2023-06-19T09:08:19;3.33;;;3.10;;
20140;SDS011;10231;47.702;9.826;2023-06-19T09:10:55;3.50;;;3.30;;
20140;SDS011;10231;47.702;9.826;2023-06-19T09:13:22;3.10;;;2.80;;
20140;SDS011;10231;47.702;9.826;2023-06-19T09:15:47;27.43;;;7.87;;
20140;SDS011;10231;47.702;9.826;2023-06-19T09:18:15;44.57;;;12.37;;
20140;SDS011;10231;47.702;9.826;2023-06-19T09:20:41;14.73;;;6.20;;
20140;SDS011;10231;47.702;9.826;2023-06-19T09:23:09;10.13;;;4.57;;
20140;SDS011;10231;47.702;9.826;2023-06-19T09:25:57;3.37;;;3.07;;
20140;SDS011;10231;47.702;9.826;2023-06-19T09:28:23;2.70;;;2.50;;
20140;SDS011;10231;47.702;9.826;2023-06-19T09:30:57;2.90;;;2.80;;
20140;SDS011;10231;47.702;9.826;2023-06-19T09:33:31;3.00;;;2.90;;
20140;SDS011;10231;47.702;9.826;2023-06-19T09:35:58;3.40;;;3.20;;
20140;SDS011;10231;47.702;9.826;2023-06-19T09:38:25;3.37;;;3.07;;
20140;SDS011;10231;47.702;9.826;2023-06-19T09:40:56;2.83;;;2.63;;
20140;SDS011;10231;47.702;9.826;2023-06-19T09:43:25;3.10;;;2.90;;
20140;SDS011;10231;47.702;9.826;2023-06-19T09:45:55;2.57;;;2.43;;
20140;SDS011;10231;47.702;9.826;2023-06-19T09:48:22;2.47;;;2.37;;
20140;SDS011;10231;47.702;9.826;2023-06-19T09:50:54;2.07;;;1.97;;
20140;SDS011;10231;47.702;9.826;2023-06-19T09:53:25;2.47;;;2.27;;
20140;SDS011;10231;47.702;9.826;2023-06-19T09:55:51;1.90;;;1.80;;
20140;SDS011;10231;47.702;9.826;2023-06-19T09:58:20;2.40;;;2.20;;
20140;SDS011;10231;47.702;9.826;2023-06-19T10:00:46;2.23;;;2.13;;
20140;SDS011;10231;47.702;9.826;2023-06-19T10:03:14;4.50;;;2.30;;
20140;SDS011;10231;47.702;9.826;2023-06-19T10:05:41;2.70;;;2.53;;
20140;SDS011;10231;47.702;9.826;2023-06-19T10:08:07;3.27;;;2.47;;
20140;SDS011;10231;47.702;9.826;2023-06-19T10:10:33;2.50;;;2.30;;
20140;SDS011;10231;47.702;9.826;2023-06-19T10:13:10;2.97;;;2.33;;
20140;SDS011;10231;47.702;9.826;2023-06-19T10:15:40;2.70;;;2.60;;
20140;SDS011;10231;47.702;9.826;2023-06-19T10:18:13;2.40;;;2.13;;
20140;SDS011;10231;47.702;9.826;2023-06-19T10:20:43;2.30;;;2.20;;
20140;SDS011;10231;47.702;9.826;2023-06-19T10:23:11;2.70;;;2.37;;
20140;SDS011;10231;47.702;9.826;2023-06-19T10:25:43;2.60;;;2.47;;
20140;SDS011;10231;47.702;9.826;2023-06-19T10:28:16;2.80;;;2.60;;
20140;SDS011;10231;47.702;9.826;2023-06-19T10:33:25;2.47;;;2.27;;
20140;SDS011;10231;47.702;9.826;2023-06-19T10:35:55;2.67;;;2.53;;
20140;SDS011;10231;47.702;9.826;2023-06-19T10:38:21;4.93;;;2.80;;
20140;SDS011;10231;47.702;9.826;2023-06-19T10:40:47;3.20;;;2.67;;
20140;SDS011;10231;47.702;9.826;2023-06-19T10:43:13;3.43;;;3.23;;
20140;SDS011;10231;47.702;9.826;2023-06-19T10:45:49;2.93;;;2.80;;
20140;SDS011;10231;47.702;9.826;2023-06-19T10:48:19;3.50;;;3.30;;
20140;SDS011;10231;47.702;9.826;2023-06-19T10:50:45;3.07;;;2.87;;
20140;SDS011;10231;47.702;9.826;2023-06-19T10:53:22;3.00;;;2.83;;
20140;SDS011;10231;47.702;9.826;2023-06-19T10:55:55;2.90;;;2.80;;
20140;SDS011;10231;47.702;9.826;2023-06-19T10:58:25;3.40;;;3.20;;
20140;SDS011;10231;47.702;9.826;2023-06-19T11:00:51;2.93;;;2.73;;
20140;SDS011;10231;47.702;9.826;2023-06-19T11:03:18;3.87;;;2.53;;
20140;SDS011;10231;47.702;9.826;2023-06-19T11:05:44;3.43;;;3.23;;
20140;SDS011;10231;47.702;9.826;2023-06-19T11:08:11;2.93;;;2.73;;
20140;SDS011;10231;47.702;9.826;2023-06-19T11:10:43;3.10;;;2.90;;
20140;SDS011;10231;47.702;9.826;2023-06-19T11:13:12;3.90;;;3.60;;
20140;SDS011;10231;47.702;9.826;2023-06-19T11:15:43;3.60;;;3.30;;
20140;SDS011;10231;47.702;9.826;2023-06-19T11:18:08;3.40;;;3.10;;
20140;SDS011;10231;47.702;9.826;2023-06-19T11:20:50;3.43;;;3.10;;
20140;SDS011;10231;47.702;9.826;2023-06-19T11:23:24;3.50;;;3.30;;
20140;SDS011;10231;47.702;9.826;2023-06-19T11:25:54;5.07;;;3.60;;
20140;SDS011;10231;47.702;9.826;2023-06-19T11:28:26;3.83;;;3.53;;
20140;SDS011;10231;47.702;9.826;2023-06-19T11:30:58;4.33;;;3.93;;
20140;SDS011;10231;47.702;9.826;2023-06-19T11:33:24;3.93;;;3.70;;
20140;SDS011;10231;47.702;9.826;2023-06-19T11:35:50;3.90;;;3.70;;
20140;SDS011;10231;47.702;9.826;2023-06-19T11:38:18;4.40;;;4.00;;
20140;SDS011;10231;47.702;9.826;2023-06-19T11:40:43;4.03;;;3.77;;
20140;SDS011;10231;47.702;9.826;2023-06-19T11:43:10;4.10;;;3.80;;
20140;SDS011;10231;47.702;9.826;2023-06-19T11:45:47;3.93;;;3.73;;
20140;SDS011;10231;47.702;9.826;2023-06-19T11:48:13;4.73;;;4.33;;
20140;SDS011;10231;47.702;9.826;2023-06-19T11:50:46;4.70;;;4.40;;
20140;SDS011;10231;47.702;9.826;2023-06-19T11:53:11;4.30;;;4.07;;
20140;SDS011;10231;47.702;9.826;2023-06-19T11:55:38;4.60;;;4.30;;
20140;SDS011;10231;47.702;9.826;2023-06-19T11:58:03;4.03;;;3.83;;
20140;SDS011;10231;47.702;9.826;2023-06-19T12:00:29;4.97;;;4.67;;
20140;SDS011;10231;47.702;9.826;2023-06-19T12:02:54;4.90;;;4.50;;
20140;SDS011;10231;47.702;9.826;2023-06-19T12:05:22;5.13;;;4.63;;
20140;SDS011;10231;47.702;9.826;2023-06-19T12:07:47;5.23;;;4.83;;
20140;SDS011;10231;47.702;9.826;2023-06-19T12:10:13;4.90;;;4.50;;
20140;SDS011;10231;47.702;9.826;2023-06-19T12:12:38;5.87;;;5.40;;
20140;SDS011;10231;47.702;9.826;2023-06-19T12:15:05;5.23;;;4.73;;
20140;SDS011;10231;47.702;9.826;2023-06-19T12:17:32;5.57;;;5.17;;
20140;SDS011;10231;47.702;9.826;2023-06-19T12:19:58;4.87;;;4.57;;
20140;SDS011;10231;47.702;9.826;2023-06-19T12:22:23;5.53;;;5.03;;
20140;SDS011;10231;47.702;9.826;2023-06-19T12:24:49;4.73;;;4.43;;
20140;SDS011;10231;47.702;9.826;2023-06-19T12:27:15;5.53;;;5.03;;
20140;SDS011;10231;47.702;9.826;2023-06-19T12:29:40;4.57;;;4.27;;
20140;SDS011;10231;47.702;9.826;2023-06-19T12:32:06;4.60;;;4.30;;
20140;SDS011;10231;47.702;9.826;2023-06-19T12:34:32;4.40;;;4.10;;
20140;SDS011;10231;47.702;9.826;2023-06-19T12:36:57;5.17;;;4.77;;
20140;SDS011;10231;47.702;9.826;2023-06-19T12:39:23;5.13;;;4.73;;
20140;SDS011;10231;47.702;9.826;2023-06-19T12:41:49;5.27;;;4.87;;
20140;SDS011;10231;47.702;9.826;2023-06-19T12:44:15;5.40;;;5.00;;
20140;SDS011;10231;47.702;9.826;2023-06-19T12:46:41;5.33;;;4.93;;
20140;SDS011;10231;47.702;9.826;2023-06-19T12:49:07;5.17;;;4.87;;
20140;SDS011;10231;47.702;9.826;2023-06-19T12:51:33;4.87;;;4.37;;
20140;SDS011;10231;47.702;9.826;2023-06-19T12:53:59;4.73;;;4.33;;
20140;SDS011;10231;47.702;9.826;2023-06-19T12:56:24;5.03;;;4.63;;
20140;SDS011;10231;47.702;9.826;2023-06-19T12:58:50;4.67;;;4.27;;
20140;SDS011;10231;47.702;9.826;2023-06-19T13:01:16;5.33;;;4.93;;
20140;SDS011;10231;47.702;9.826;2023-06-19T13:03:42;4.50;;;4.20;;
20140;SDS011;10231;47.702;9.826;2023-06-19T13:06:07;4.70;;;4.30;;
20140;SDS011;10231;47.702;9.826;2023-06-19T13:08:33;4.63;;;4.33;;
20140;SDS011;10231;47.702;9.826;2023-06-19T13:10:58;4.93;;;4.53;;
20140;SDS011;10231;47.702;9.826;2023-06-19T13:13:24;4.50;;;4.20;;
20140;SDS011;10231;47.702;9.826;2023-06-19T13:15:49;5.57;;;4.93;;
20140;SDS011;10231;47.702;9.826;2023-06-19T13:18:15;4.83;;;4.53;;
20140;SDS011;10231;47.702;9.826;2023-06-19T13:20:42;4.90;;;4.60;;
20140;SDS011;10231;47.702;9.826;2023-06-19T13:23:09;4.93;;;4.60;;
20140;SDS011;10231;47.702;9.826;2023-06-19T13:25:35;4.90;;;4.43;;
20140;SDS011;10231;47.702;9.826;2023-06-19T13:28:01;4.80;;;4.50;;
20140;SDS011;10231;47.702;9.826;2023-06-19T13:30:26;5.43;;;4.93;;
20140;SDS011;10231;47.702;9.826;2023-06-19T13:32:52;4.60;;;4.30;;
20140;SDS011;10231;47.702;9.826;2023-06-19T13:35:17;5.03;;;4.63;;
20140;SDS011;10231;47.702;9.826;2023-06-19T13:37:43;4.80;;;4.50;;
20140;SDS011;10231;47.702;9.826;2023-06-19T13:40:09;4.83;;;4.43;;
20140;SDS011;10231;47.702;9.826;2023-06-19T13:42:34;5.33;;;4.93;;
20140;SDS011;10231;47.702;9.826;2023-06-19T13:45:00;4.97;;;4.27;;
20140;SDS011;10231;47.702;9.826;2023-06-19T13:47:27;4.80;;;4.27;;
20140;SDS011;10231;47.702;9.826;2023-06-19T13:49:52;4.87;;;4.53;;
20140;SDS011;10231;47.702;9.826;2023-06-19T13:52:18;5.27;;;4.87;;
20140;SDS011;10231;47.702;9.826;2023-06-19T13:54:44;5.63;;;5.23;;
20140;SDS011;10231;47.702;9.826;2023-06-19T13:57:09;5.10;;;4.70;;
20140;SDS011;10231;47.702;9.826;2023-06-19T13:59:35;4.93;;;4.63;;
20140;SDS011;10231;47.702;9.826;2023-06-19T14:02:01;5.50;;;5.00;;
20140;SDS011;10231;47.702;9.826;2023-06-19T14:04:27;5.27;;;4.97;;
20140;SDS011;10231;47.702;9.826;2023-06-19T14:06:52;4.87;;;4.53;;
20140;SDS011;10231;47.702;9.826;2023-06-19T14:09:19;5.20;;;4.80;;
20140;SDS011;10231;47.702;9.826;2023-06-19T14:11:45;6.20;;;5.70;;
20140;SDS011;10231;47.702;9.826;2023-06-19T14:14:11;5.93;;;5.47;;
20140;SDS011;10231;47.702;9.826;2023-06-19T14:16:36;5.17;;;4.83;;
20140;SDS011;10231;47.702;9.826;2023-06-19T14:19:02;5.00;;;4.70;;
20140;SDS011;10231;47.702;9.826;2023-06-19T14:21:27;5.23;;;4.93;;
20140;SDS011;10231;47.702;9.826;2023-06-19T14:23:53;5.40;;;4.90;;
20140;SDS011;10231;47.702;9.826;2023-06-19T14:26:19;5.77;;;5.27;;
20140;SDS011;10231;47.702;9.826;2023-06-19T14:28:45;5.50;;;5.10;;
20140;SDS011;10231;47.702;9.826;2023-06-19T14:31:10;5.63;;;5.17;;
20140;SDS011;10231;47.702;9.826;2023-06-19T14:33:36;4.93;;;4.53;;
20140;SDS011;10231;47.702;9.826;2023-06-19T14:36:03;5.97;;;5.37;;
20140;SDS011;10231;47.702;9.826;2023-06-19T14:38:28;5.33;;;5.03;;
20140;SDS011;10231;47.702;9.826;2023-06-19T14:40:58;5.73;;;5.33;;
20140;SDS011;10231;47.702;9.826;2023-06-19T14:43:25;5.53;;;5.03;;
20140;SDS011;10231;47.702;9.826;2023-06-19T14:45:51;7.73;;;4.97;;